createdAt,value
2023-01-12T00:02:11.984Z,99.90
2023-01-12T00:04:40.169Z,99.90
2023-01-12T00:07:09.110Z,99.90
2023-01-12T00:09:37.415Z,99.90
2023-01-12T00:12:07.130Z,99.90
2023-01-12T00:14:35.755Z,99.90
2023-01-12T00:17:04.271Z,99.90
2023-01-12T00:19:33.979Z,99.90
2023-01-12T00:22:08.792Z,99.90
2023-01-12T00:24:38.173Z,99.90
2023-01-12T00:27:08.670Z,99.90
2023-01-12T00:29:37.894Z,99.90
2023-01-12T00:32:07.661Z,99.90
2023-01-12T00:34:37.153Z,99.90
2023-01-12T00:37:05.457Z,99.90
2023-01-12T00:39:33.607Z,99.90
2023-01-12T00:42:19.175Z,99.90
2023-01-12T00:45:04.805Z,1.00
2023-01-12T00:47:33.103Z,1.00
2023-01-12T00:50:02.535Z,78.80
2023-01-12T00:52:31.779Z,99.90
2023-01-12T00:55:00.957Z,99.90
2023-01-12T00:57:29.569Z,99.90
2023-01-12T00:59:59.360Z,99.90
2023-01-12T01:02:28.375Z,99.90
2023-01-12T01:04:56.868Z,99.90
2023-01-12T01:07:26.482Z,99.90
2023-01-12T01:09:54.729Z,99.90
2023-01-12T01:12:22.779Z,99.90
2023-01-12T01:14:50.996Z,99.90
2023-01-12T01:17:19.041Z,99.90
2023-01-12T01:19:48.405Z,1.00
2023-01-12T01:22:16.543Z,1.00
2023-01-12T01:24:46.007Z,1.00
2023-01-12T01:27:14.543Z,1.00
2023-01-12T01:29:42.971Z,1.00
2023-01-12T01:32:11.179Z,1.00
2023-01-12T01:34:39.408Z,1.00
2023-01-12T01:37:07.676Z,1.00
2023-01-12T01:39:36.032Z,1.00
2023-01-12T01:42:05.575Z,1.00
2023-01-12T01:44:55.141Z,1.00
2023-01-12T01:47:31.099Z,1.00
2023-01-12T01:50:03.076Z,1.00
2023-01-12T01:52:34.907Z,1.00
2023-01-12T01:55:08.154Z,1.00
2023-01-12T01:57:43.285Z,1.00
2023-01-12T02:00:13.854Z,1.00
2023-01-12T02:02:43.775Z,1.00
2023-01-12T02:05:14.197Z,1.00
2023-01-12T02:07:42.389Z,1.00
2023-01-12T02:10:11.556Z,1.00
2023-01-12T02:13:00.186Z,1.00
2023-01-12T02:15:49.028Z,1.00
2023-01-12T02:18:24.450Z,1.00
2023-01-12T02:21:01.825Z,1.00
2023-01-12T02:24:20.535Z,1.00
2023-01-12T02:27:21.372Z,1.00
2023-01-12T02:30:27.931Z,1.00
2023-01-12T02:33:08.393Z,1.00
2023-01-12T02:35:45.333Z,1.00
2023-01-12T02:38:25.185Z,1.00
2023-01-12T02:41:00.734Z,1.00
2023-01-12T02:43:30.113Z,1.00
2023-01-12T02:46:04.752Z,1.00
2023-01-12T02:48:39.053Z,1.00
2023-01-12T02:51:12.565Z,1.00
2023-01-12T02:53:44.773Z,1.00
2023-01-12T02:56:17.033Z,1.00
2023-01-12T02:58:48.936Z,1.00
2023-01-12T03:01:19.579Z,1.00
2023-01-12T03:03:50.299Z,1.00
2023-01-12T03:06:19.366Z,1.00
2023-01-12T03:08:49.889Z,1.00
2023-01-12T03:11:19.654Z,1.00
2023-01-12T03:13:51.481Z,1.00
2023-01-12T03:16:23.239Z,1.00
2023-01-12T03:18:57.008Z,1.00
2023-01-12T03:21:30.574Z,1.00
2023-01-12T03:24:04.559Z,1.00
2023-01-12T03:26:35.515Z,1.00
2023-01-12T03:29:08.648Z,1.00
2023-01-12T03:31:37.871Z,1.00
2023-01-12T03:34:08.682Z,1.00
2023-01-12T03:36:53.422Z,1.00
2023-01-12T03:39:28.638Z,99.90
2023-01-12T03:42:02.351Z,99.90
2023-01-12T03:44:37.775Z,99.90
2023-01-12T03:47:13.060Z,99.90
2023-01-12T03:49:47.140Z,99.90
2023-01-12T03:52:16.830Z,99.90
2023-01-12T03:54:48.261Z,99.90
2023-01-12T03:57:16.930Z,99.90
2023-01-12T03:59:45.257Z,99.90
2023-01-12T04:02:14.436Z,99.90
2023-01-12T04:04:43.847Z,99.90
2023-01-12T04:07:11.950Z,99.90
2023-01-12T04:09:39.965Z,99.90
2023-01-12T04:12:14.074Z,50.70
2023-01-12T04:14:46.159Z,99.90
2023-01-12T04:17:17.244Z,99.90
2023-01-12T04:19:46.759Z,99.90
2023-01-12T04:22:34.340Z,99.90
2023-01-12T04:25:02.529Z,32.90
2023-01-12T04:27:30.766Z,67.30
2023-01-12T04:29:58.832Z,1.00
2023-01-12T04:32:26.921Z,1.00
2023-01-12T04:34:56.294Z,1.00
2023-01-12T04:37:24.472Z,1.00
2023-01-12T04:39:52.550Z,1.00
2023-01-12T04:42:37.899Z,1.00
2023-01-12T04:45:06.835Z,1.00
2023-01-12T04:47:35.064Z,1.00
2023-01-12T04:50:05.365Z,1.00
2023-01-12T04:52:33.745Z,1.00
2023-01-12T04:55:01.928Z,1.00
2023-01-12T04:57:30.102Z,22.60
2023-01-12T04:59:58.625Z,9.00
2023-01-12T05:02:26.774Z,47.50
2023-01-12T05:04:54.879Z,26.50
2023-01-12T05:07:24.358Z,31.40
2023-01-12T05:10:09.862Z,47.60
2023-01-12T05:12:37.963Z,72.20
2023-01-12T05:15:07.299Z,1.00
2023-01-12T05:17:35.571Z,10.10
2023-01-12T05:20:03.895Z,1.00
2023-01-12T05:22:33.904Z,37.20
2023-01-12T05:25:02.092Z,7.80
2023-01-12T05:27:30.190Z,21.30
2023-01-12T05:29:59.651Z,1.00
2023-01-12T05:32:28.040Z,1.00
2023-01-12T05:34:56.175Z,1.00
2023-01-12T05:37:24.308Z,1.00
2023-01-12T05:39:53.737Z,1.00
2023-01-12T05:42:39.444Z,1.00
2023-01-12T05:45:08.792Z,1.00
2023-01-12T05:47:36.872Z,1.00
2023-01-12T05:50:06.062Z,1.00
2023-01-12T05:52:34.175Z,1.00
2023-01-12T05:55:03.769Z,1.00
2023-01-12T05:57:32.454Z,1.00
2023-01-12T06:00:00.635Z,1.00
2023-01-12T06:02:28.796Z,1.00
2023-01-12T06:04:57.018Z,1.00
2023-01-12T06:07:25.080Z,1.00
2023-01-12T06:09:53.210Z,1.00
2023-01-12T06:12:40.083Z,1.00
2023-01-12T06:15:09.018Z,1.00
2023-01-12T06:17:37.202Z,1.00
2023-01-12T06:20:06.555Z,1.00
2023-01-12T06:22:34.756Z,1.00
2023-01-12T06:25:02.891Z,1.00
2023-01-12T06:27:35.454Z,1.00
2023-01-12T06:30:03.564Z,1.00
2023-01-12T06:32:33.554Z,1.00
2023-01-12T06:35:14.076Z,1.00
2023-01-12T06:37:46.602Z,1.00
2023-01-12T06:40:15.086Z,1.00
2023-01-12T06:42:44.439Z,1.00
2023-01-12T06:45:12.702Z,1.00
2023-01-12T06:47:48.679Z,1.00
2023-01-12T06:50:17.465Z,1.00
2023-01-12T06:52:45.553Z,1.00
2023-01-12T06:55:13.694Z,1.00
2023-01-12T06:57:41.888Z,1.00
2023-01-12T07:00:15.966Z,1.00
2023-01-12T07:02:44.156Z,1.00
2023-01-12T07:05:12.225Z,1.00
2023-01-12T07:07:40.731Z,1.00
2023-01-12T07:10:09.840Z,1.00
2023-01-12T07:12:38.032Z,1.00
2023-01-12T07:15:06.878Z,1.00
2023-01-12T07:17:36.332Z,1.00
2023-01-12T07:20:04.742Z,1.00
2023-01-12T07:22:32.898Z,1.00
2023-01-12T07:25:01.183Z,1.00
2023-01-12T07:27:29.343Z,1.00
2023-01-12T07:29:57.378Z,1.00
2023-01-12T07:32:29.565Z,1.00
2023-01-12T07:34:59.081Z,1.00
2023-01-12T07:37:27.172Z,1.00
2023-01-12T07:39:57.084Z,1.00
2023-01-12T07:42:26.510Z,1.00
2023-01-12T07:44:54.853Z,1.00
2023-01-12T07:47:23.182Z,1.00
2023-01-12T07:49:51.709Z,1.00
2023-01-12T07:52:21.263Z,1.00
2023-01-12T07:54:49.435Z,1.00
2023-01-12T07:57:18.363Z,1.00
2023-01-12T07:59:46.414Z,1.00
2023-01-12T08:02:17.123Z,1.00
2023-01-12T08:04:45.626Z,1.00
2023-01-12T08:07:14.822Z,1.00
2023-01-12T08:09:44.446Z,1.00
2023-01-12T08:12:12.628Z,1.00
2023-01-12T08:14:42.535Z,1.00
2023-01-12T08:17:15.289Z,1.00
2023-01-12T08:19:47.173Z,1.00
2023-01-12T08:22:21.360Z,1.00
2023-01-12T08:24:55.958Z,1.00
2023-01-12T08:27:26.583Z,1.00
2023-01-12T08:29:58.533Z,1.00
2023-01-12T08:32:29.198Z,1.00
2023-01-12T08:35:02.223Z,1.00
2023-01-12T08:37:31.944Z,1.00
2023-01-12T08:40:01.725Z,1.00
2023-01-12T08:42:31.959Z,1.00
2023-01-12T08:45:00.179Z,1.00
2023-01-12T08:47:30.525Z,1.00
2023-01-12T08:50:00.447Z,1.00
2023-01-12T08:52:31.704Z,1.00
2023-01-12T08:55:01.304Z,1.00
2023-01-12T08:57:30.094Z,1.00
2023-01-12T08:59:58.292Z,1.00
2023-01-12T09:02:27.145Z,1.00
2023-01-12T09:04:55.682Z,1.00
2023-01-12T09:07:23.829Z,1.00
2023-01-12T09:09:51.999Z,1.00
2023-01-12T09:12:23.606Z,1.00
2023-01-12T09:14:53.847Z,1.00
2023-01-12T09:17:24.102Z,1.00
2023-01-12T09:19:52.212Z,1.00
2023-01-12T09:22:20.327Z,1.00
2023-01-12T09:24:48.593Z,1.00
2023-01-12T09:27:16.679Z,1.00
2023-01-12T09:29:46.133Z,1.00
2023-01-12T09:32:14.843Z,1.00
2023-01-12T09:34:43.727Z,1.00
2023-01-12T09:37:11.819Z,1.00
2023-01-12T09:39:39.937Z,1.00
2023-01-12T09:42:36.672Z,1.00
2023-01-12T09:45:35.984Z,1.00
2023-01-12T09:48:04.641Z,1.00
2023-01-12T09:50:36.727Z,1.00
2023-01-12T09:53:08.649Z,1.00
2023-01-12T09:55:43.073Z,1.00
2023-01-12T09:58:31.327Z,1.00
2023-01-12T10:01:10.627Z,1.00
2023-01-12T10:03:43.762Z,1.00
2023-01-12T10:06:16.668Z,1.00
2023-01-12T10:08:47.756Z,1.00
2023-01-12T10:11:20.334Z,1.00
2023-01-12T10:14:12.666Z,1.00
2023-01-12T10:16:55.610Z,1.00
2023-01-12T10:19:28.873Z,1.00
2023-01-12T10:21:57.566Z,1.00
2023-01-12T10:24:27.130Z,1.00
2023-01-12T10:27:02.132Z,1.00
2023-01-12T10:29:31.915Z,1.00
2023-01-12T10:32:01.667Z,1.00
2023-01-12T10:34:30.601Z,1.00
2023-01-12T10:37:10.465Z,1.00
2023-01-12T10:39:40.020Z,1.00
2023-01-12T10:42:38.051Z,1.00
2023-01-12T10:45:17.861Z,1.00
2023-01-12T10:47:48.945Z,1.00
2023-01-12T10:50:26.292Z,1.00
2023-01-12T10:53:02.520Z,1.00
2023-01-12T10:55:33.538Z,1.00
2023-01-12T10:58:02.386Z,1.00
2023-01-12T11:00:31.045Z,1.00
2023-01-12T11:03:00.540Z,1.00
2023-01-12T11:05:36.890Z,1.00
2023-01-12T11:08:20.238Z,1.00
2023-01-12T11:10:48.449Z,99.90
2023-01-12T11:13:27.242Z,99.90
2023-01-12T11:16:06.483Z,99.90
2023-01-12T11:18:42.057Z,99.90
2023-01-12T11:21:13.688Z,99.90
2023-01-12T11:23:52.044Z,99.90
2023-01-12T11:26:25.145Z,99.90
2023-01-12T11:28:57.791Z,99.90
2023-01-12T11:31:29.655Z,99.90
2023-01-12T11:34:03.816Z,99.90
2023-01-12T11:36:35.724Z,99.90
2023-01-12T11:39:07.077Z,99.90
2023-01-12T11:41:40.313Z,99.90
2023-01-12T11:44:18.173Z,99.90
2023-01-12T11:46:49.370Z,99.90
2023-01-12T11:49:23.870Z,99.90
2023-01-12T11:51:57.054Z,99.90
2023-01-12T11:54:27.201Z,99.90
2023-01-12T11:57:12.043Z,99.90
2023-01-12T11:59:51.061Z,99.90
2023-01-12T12:02:32.989Z,99.90
2023-01-12T12:05:14.132Z,99.90
2023-01-12T12:07:55.740Z,99.90
2023-01-12T12:10:27.767Z,99.90
2023-01-12T12:13:28.071Z,99.90
2023-01-12T12:16:11.558Z,99.90
2023-01-12T12:18:51.660Z,99.90
2023-01-12T12:21:46.931Z,99.90
2023-01-12T12:24:34.294Z,99.90
2023-01-12T12:27:11.759Z,99.90
2023-01-12T12:30:01.787Z,99.90
2023-01-12T12:32:37.539Z,99.90
2023-01-12T12:35:28.598Z,99.90
2023-01-12T12:38:14.027Z,99.90
2023-01-12T12:41:12.408Z,99.90
2023-01-12T12:43:58.404Z,99.90
2023-01-12T12:46:40.864Z,99.90
2023-01-12T12:49:12.902Z,99.90
2023-01-12T12:51:42.863Z,99.90
2023-01-12T12:54:18.625Z,99.90
2023-01-12T12:56:48.323Z,99.90
2023-01-12T12:59:59.654Z,99.90
2023-01-12T13:02:39.862Z,99.90
2023-01-12T13:05:09.988Z,99.90
2023-01-12T13:07:43.397Z,99.90
2023-01-12T13:10:23.429Z,99.90
2023-01-12T13:13:05.917Z,99.90
2023-01-12T13:15:37.560Z,99.90
2023-01-12T13:18:07.129Z,99.90
2023-01-12T13:21:02.271Z,99.90
2023-01-12T13:24:18.365Z,99.90
2023-01-12T13:26:52.301Z,99.90
2023-01-12T13:29:50.744Z,99.90
2023-01-12T13:32:43.520Z,99.90
2023-01-12T13:35:30.013Z,99.90
2023-01-12T13:38:08.775Z,99.90
2023-01-12T13:40:37.321Z,99.90
2023-01-12T13:43:17.051Z,99.90
2023-01-12T13:45:50.500Z,99.90
2023-01-12T13:48:20.113Z,99.90
2023-01-12T13:50:51.460Z,99.90
2023-01-12T13:53:28.396Z,99.90
2023-01-12T13:55:59.273Z,99.90
2023-01-12T13:58:29.536Z,99.90
2023-01-12T14:01:00.574Z,99.90
2023-01-12T14:03:51.179Z,99.90
2023-01-12T14:06:29.043Z,99.90
2023-01-12T14:09:09.882Z,99.90
2023-01-12T14:11:50.404Z,99.90
2023-01-12T14:14:51.926Z,99.90
2023-01-12T14:17:44.607Z,99.90
2023-01-12T14:20:17.588Z,99.90
2023-01-12T14:22:46.188Z,99.90
2023-01-12T14:25:20.558Z,99.90
2023-01-12T14:27:53.317Z,99.90
2023-01-12T14:30:24.498Z,99.90
2023-01-12T14:32:53.731Z,99.90
2023-01-12T14:35:25.480Z,99.90
2023-01-12T14:37:57.839Z,99.90
2023-01-12T14:40:30.970Z,99.90
2023-01-12T14:43:31.635Z,99.90
2023-01-12T14:46:20.917Z,99.90
2023-01-12T14:48:57.293Z,99.90
2023-01-12T14:51:27.738Z,99.90
2023-01-12T14:54:01.324Z,99.90
2023-01-12T14:56:36.172Z,99.90
2023-01-12T14:59:09.796Z,99.90
2023-01-12T15:01:40.479Z,99.90
2023-01-12T15:04:17.228Z,99.90
2023-01-12T15:06:47.224Z,99.90
2023-01-12T15:09:28.189Z,99.90
2023-01-12T15:11:57.439Z,99.90
2023-01-12T15:14:27.147Z,99.90
2023-01-12T15:17:14.871Z,99.90
2023-01-12T15:20:00.741Z,99.90
2023-01-12T15:22:47.754Z,99.90
2023-01-12T15:25:35.592Z,99.90
2023-01-12T15:28:06.064Z,99.90
2023-01-12T15:30:39.259Z,99.90
2023-01-12T15:33:10.180Z,99.90
2023-01-12T15:35:44.534Z,99.90
2023-01-12T15:38:14.423Z,99.90
2023-01-12T15:40:42.879Z,99.90
2023-01-12T15:43:14.728Z,99.90
2023-01-12T15:45:44.519Z,99.90
2023-01-12T15:48:14.223Z,99.90
2023-01-12T15:50:44.080Z,99.90
2023-01-12T15:53:15.193Z,99.90
2023-01-12T15:55:43.357Z,99.90
2023-01-12T15:58:11.791Z,99.90
2023-01-12T16:00:40.268Z,99.90
2023-01-12T16:03:28.939Z,99.90
2023-01-12T16:06:02.095Z,99.90
2023-01-12T16:08:30.317Z,99.90
2023-01-12T16:11:13.368Z,99.90
2023-01-12T16:13:42.396Z,99.90
2023-01-12T16:16:15.836Z,99.90
2023-01-12T16:18:45.694Z,99.90
2023-01-12T16:21:17.131Z,99.90
2023-01-12T16:23:45.821Z,99.90
2023-01-12T16:26:13.917Z,99.90
2023-01-12T16:28:42.064Z,99.90
2023-01-12T16:31:12.914Z,99.90
2023-01-12T16:33:42.731Z,99.90
2023-01-12T16:36:14.333Z,99.90
2023-01-12T16:38:42.847Z,99.90
2023-01-12T16:41:12.503Z,99.90
2023-01-12T16:43:40.857Z,99.90
2023-01-12T16:46:09.077Z,99.90
2023-01-12T16:48:39.438Z,99.90
2023-01-12T16:51:12.788Z,99.90
2023-01-12T16:53:41.831Z,99.90
2023-01-12T16:56:12.268Z,99.90
2023-01-12T16:58:41.900Z,99.90
2023-01-12T17:01:12.421Z,99.90
2023-01-12T17:03:42.276Z,99.90
2023-01-12T17:06:15.073Z,99.90
2023-01-12T17:08:43.866Z,99.90
2023-01-12T17:11:13.979Z,99.90
2023-01-12T17:13:42.740Z,99.90
2023-01-12T17:16:12.301Z,99.90
2023-01-12T17:18:40.953Z,99.90
2023-01-12T17:21:13.296Z,99.90
2023-01-12T17:23:42.821Z,99.90
2023-01-12T17:26:14.429Z,99.90
2023-01-12T17:28:42.957Z,99.90
2023-01-12T17:31:13.276Z,99.90
2023-01-12T17:33:42.250Z,99.90
2023-01-12T17:36:13.481Z,99.90
2023-01-12T17:38:41.645Z,99.90
2023-01-12T17:41:30.642Z,99.90
2023-01-12T17:43:58.310Z,99.90
2023-01-12T17:46:26.751Z,99.90
2023-01-12T17:48:55.172Z,99.90
2023-01-12T17:51:24.881Z,99.90
2023-01-12T17:53:54.794Z,99.90
2023-01-12T17:56:23.115Z,99.90
2023-01-12T17:58:51.557Z,99.90
2023-01-12T18:01:20.532Z,99.90
2023-01-12T18:03:48.870Z,99.90
2023-01-12T18:06:25.777Z,99.90
2023-01-12T18:08:57.380Z,99.90
2023-01-12T18:11:26.486Z,99.90
2023-01-12T18:13:55.151Z,99.90
2023-01-12T18:16:23.522Z,99.90
2023-01-12T18:18:52.898Z,99.90
2023-01-12T18:21:23.417Z,99.90
2023-01-12T18:23:52.958Z,99.90
2023-01-12T18:26:25.290Z,99.90
2023-01-12T18:28:53.771Z,99.90
2023-01-12T18:31:23.962Z,99.90
2023-01-12T18:33:52.767Z,99.90
2023-01-12T18:36:22.588Z,99.90
2023-01-12T18:38:51.932Z,99.90
2023-01-12T18:41:40.163Z,99.90
2023-01-12T18:44:09.348Z,99.90
2023-01-12T18:47:00.075Z,99.90
2023-01-12T18:49:30.438Z,99.90
2023-01-12T18:52:16.807Z,99.90
2023-01-12T18:54:47.370Z,99.90
2023-01-12T18:57:18.363Z,99.90
2023-01-12T18:59:47.202Z,99.90
2023-01-12T19:02:16.803Z,99.90
2023-01-12T19:05:04.463Z,99.90
2023-01-12T19:07:39.540Z,99.90
2023-01-12T19:10:07.791Z,99.90
2023-01-12T19:12:37.661Z,99.90
2023-01-12T19:15:24.023Z,99.90
2023-01-12T19:17:52.340Z,99.90
2023-01-12T19:20:21.156Z,99.90
2023-01-12T19:23:09.526Z,99.90
2023-01-12T19:26:04.219Z,99.90
2023-01-12T19:28:35.845Z,99.90
2023-01-12T19:31:07.307Z,99.90
2023-01-12T19:33:35.769Z,99.90
2023-01-12T19:36:07.908Z,99.90
2023-01-12T19:38:37.159Z,99.90
2023-01-12T19:41:12.332Z,99.90
2023-01-12T19:43:45.531Z,99.90
2023-01-12T19:46:14.585Z,99.90
2023-01-12T19:48:43.086Z,99.90
2023-01-12T19:51:11.856Z,99.90
2023-01-12T19:53:40.996Z,99.90
2023-01-12T19:56:11.339Z,99.90
2023-01-12T19:58:42.315Z,99.90
2023-01-12T20:01:10.601Z,99.90
2023-01-12T20:03:41.747Z,99.90
2023-01-12T20:06:10.542Z,99.90
2023-01-12T20:08:38.856Z,99.90
2023-01-12T20:11:08.241Z,99.90
2023-01-12T20:13:37.000Z,99.90
2023-01-12T20:16:09.291Z,99.90
2023-01-12T20:18:37.698Z,99.90
2023-01-12T20:21:09.828Z,99.90
2023-01-12T20:23:38.366Z,1.00
2023-01-12T20:26:08.897Z,1.00
2023-01-12T20:28:37.759Z,1.00
2023-01-12T20:31:11.726Z,1.00
2023-01-12T20:33:40.560Z,1.00
2023-01-12T20:36:12.360Z,1.00
2023-01-12T20:38:41.082Z,1.00
2023-01-12T20:41:10.055Z,1.00
2023-01-12T20:43:38.641Z,1.00
2023-01-12T20:46:10.392Z,1.00
2023-01-12T20:48:40.644Z,1.00
2023-01-12T20:51:09.130Z,1.00
2023-01-12T20:53:37.815Z,1.00
2023-01-12T20:56:07.308Z,1.00
2023-01-12T20:58:36.499Z,1.00
2023-01-12T21:01:10.935Z,1.00
2023-01-12T21:03:40.198Z,1.00
2023-01-12T21:06:12.491Z,1.00
2023-01-12T21:08:43.170Z,1.00
2023-01-12T21:11:12.412Z,1.00
2023-01-12T21:13:40.781Z,1.00
2023-01-12T21:16:14.749Z,1.00
2023-01-12T21:18:44.488Z,1.00
2023-01-12T21:21:13.388Z,1.00
2023-01-12T21:23:41.681Z,1.00
2023-01-12T21:26:11.222Z,1.00
2023-01-12T21:28:40.752Z,1.00
2023-01-12T21:31:13.201Z,1.00
2023-01-12T21:33:41.748Z,1.00
2023-01-12T21:36:12.388Z,1.00
2023-01-12T21:38:41.495Z,1.00
2023-01-12T21:41:12.177Z,1.00
2023-01-12T21:43:39.809Z,1.00
2023-01-12T21:46:11.223Z,1.00
2023-01-12T21:48:39.589Z,1.00
2023-01-12T21:51:09.496Z,1.00
2023-01-12T21:53:37.587Z,1.00
2023-01-12T21:56:06.893Z,1.00
2023-01-12T21:58:37.283Z,1.00
2023-01-12T22:01:12.404Z,1.00
2023-01-12T22:03:41.468Z,1.00
2023-01-12T22:06:11.599Z,1.00
2023-01-12T22:08:41.837Z,1.00
2023-01-12T22:11:11.815Z,1.00
2023-01-12T22:13:40.903Z,1.00
2023-01-12T22:16:12.490Z,1.00
2023-01-12T22:18:44.498Z,1.00
2023-01-12T22:21:12.792Z,1.00
2023-01-12T22:23:42.133Z,1.00
2023-01-12T22:26:13.421Z,1.00
2023-01-12T22:28:43.673Z,1.00
2023-01-12T22:31:15.282Z,1.00
2023-01-12T22:33:46.463Z,1.00
2023-01-12T22:36:14.840Z,1.00
2023-01-12T22:38:43.167Z,1.00
2023-01-12T22:41:12.729Z,1.00
2023-01-12T22:43:40.898Z,1.00
2023-01-12T22:46:18.427Z,1.00
2023-01-12T22:48:49.826Z,1.00
2023-01-12T22:51:18.227Z,1.00
2023-01-12T22:53:46.402Z,1.00
2023-01-12T22:56:14.875Z,1.00
2023-01-12T22:58:47.687Z,1.00
2023-01-12T23:01:18.785Z,1.00
2023-01-12T23:03:48.230Z,1.00
2023-01-12T23:06:18.125Z,1.00
2023-01-12T23:08:46.838Z,1.00
2023-01-12T23:11:16.858Z,1.00
2023-01-12T23:13:46.344Z,1.00
2023-01-12T23:16:18.672Z,1.00
2023-01-12T23:18:49.920Z,1.00
2023-01-12T23:21:20.237Z,1.00
2023-01-12T23:23:50.106Z,1.00
2023-01-12T23:26:20.981Z,1.00
2023-01-12T23:28:51.959Z,1.00
2023-01-12T23:31:23.636Z,1.00
2023-01-12T23:33:52.728Z,1.00
2023-01-12T23:36:22.439Z,1.00
2023-01-12T23:38:54.157Z,1.00
2023-01-12T23:41:24.544Z,1.00
2023-01-12T23:43:56.150Z,1.00
2023-01-12T23:46:26.121Z,1.00
2023-01-12T23:48:55.581Z,1.00
2023-01-12T23:51:24.906Z,1.00
2023-01-12T23:53:53.521Z,1.00
2023-01-12T23:56:22.112Z,1.00
2023-01-12T23:58:50.230Z,1.00
